sensor_id;sensor_type;location;lat;lon;timestamp;P1;durP1;ratioP1;P2;durP2;ratioP2
16113;SDS011;8161;-33.910;151.156;2023-03-26T00:01:23;6.37;;;2.80;;
16113;SDS011;8161;-33.910;151.156;2023-03-26T00:03:52;5.18;;;2.65;;
16113;SDS011;8161;-33.910;151.156;2023-03-26T00:06:23;4.18;;;1.90;;
16113;SDS011;8161;-33.910;151.156;2023-03-26T00:08:52;3.45;;;1.70;;
16113;SDS011;8161;-33.910;151.156;2023-03-26T00:11:22;5.32;;;1.88;;
16113;SDS011;8161;-33.910;151.156;2023-03-26T00:13:52;5.75;;;2.40;;
16113;SDS011;8161;-33.910;151.156;2023-03-26T00:16:22;4.65;;;1.70;;
16113;SDS011;8161;-33.910;151.156;2023-03-26T00:18:54;3.47;;;1.80;;
16113;SDS011;8161;-33.910;151.156;2023-03-26T00:21:23;3.13;;;1.60;;
16113;SDS011;8161;-33.910;151.156;2023-03-26T00:23:53;4.47;;;1.65;;
16113;SDS011;8161;-33.910;151.156;2023-03-26T00:26:28;2.53;;;2.08;;
16113;SDS011;8161;-33.910;151.156;2023-03-26T00:28:57;4.55;;;1.60;;
16113;SDS011;8161;-33.910;151.156;2023-03-26T00:31:25;3.83;;;1.50;;
16113;SDS011;8161;-33.910;151.156;2023-03-26T00:33:52;4.70;;;1.90;;
16113;SDS011;8161;-33.910;151.156;2023-03-26T00:36:20;3.28;;;1.60;;
16113;SDS011;8161;-33.910;151.156;2023-03-26T00:38:49;3.33;;;1.52;;
16113;SDS011;8161;-33.910;151.156;2023-03-26T00:41:19;4.05;;;1.90;;
16113;SDS011;8161;-33.910;151.156;2023-03-26T00:43:51;3.97;;;1.60;;
16113;SDS011;8161;-33.910;151.156;2023-03-26T00:46:21;2.92;;;1.50;;
16113;SDS011;8161;-33.910;151.156;2023-03-26T00:48:49;4.53;;;1.98;;
16113;SDS011;8161;-33.910;151.156;2023-03-26T00:51:17;5.68;;;1.70;;
16113;SDS011;8161;-33.910;151.156;2023-03-26T00:53:46;4.57;;;1.95;;
16113;SDS011;8161;-33.910;151.156;2023-03-26T00:56:15;3.47;;;1.73;;
16113;SDS011;8161;-33.910;151.156;2023-03-26T00:58:43;5.15;;;1.90;;
16113;SDS011;8161;-33.910;151.156;2023-03-26T01:01:13;4.82;;;1.60;;
16113;SDS011;8161;-33.910;151.156;2023-03-26T01:03:43;4.40;;;1.70;;
16113;SDS011;8161;-33.910;151.156;2023-03-26T01:06:20;3.10;;;1.60;;
16113;SDS011;8161;-33.910;151.156;2023-03-26T01:08:52;1.98;;;1.30;;
16113;SDS011;8161;-33.910;151.156;2023-03-26T01:11:29;4.60;;;1.30;;
16113;SDS011;8161;-33.910;151.156;2023-03-26T01:14:00;4.68;;;1.85;;
16113;SDS011;8161;-33.910;151.156;2023-03-26T01:22:03;5.93;;;1.70;;
16113;SDS011;8161;-33.910;151.156;2023-03-26T01:24:35;3.97;;;1.42;;
16113;SDS011;8161;-33.910;151.156;2023-03-26T01:27:17;3.20;;;1.40;;
16113;SDS011;8161;-33.910;151.156;2023-03-26T01:35:46;5.40;;;1.92;;
16113;SDS011;8161;-33.910;151.156;2023-03-26T01:38:48;3.53;;;1.80;;
16113;SDS011;8161;-33.910;151.156;2023-03-26T01:44:05;4.95;;;1.77;;
16113;SDS011;8161;-33.910;151.156;2023-03-26T01:46:48;4.77;;;1.57;;
16113;SDS011;8161;-33.910;151.156;2023-03-26T01:49:16;5.10;;;1.80;;
16113;SDS011;8161;-33.910;151.156;2023-03-26T01:51:44;2.70;;;1.50;;
16113;SDS011;8161;-33.910;151.156;2023-03-26T01:54:14;7.47;;;1.77;;
16113;SDS011;8161;-33.910;151.156;2023-03-26T01:59:25;2.50;;;1.20;;
16113;SDS011;8161;-33.910;151.156;2023-03-26T02:02:10;4.88;;;1.45;;
16113;SDS011;8161;-33.910;151.156;2023-03-26T02:04:50;3.80;;;1.45;;
16113;SDS011;8161;-33.910;151.156;2023-03-26T02:10:07;3.03;;;1.40;;
16113;SDS011;8161;-33.910;151.156;2023-03-26T02:12:42;3.60;;;1.50;;
16113;SDS011;8161;-33.910;151.156;2023-03-26T02:15:10;5.55;;;2.00;;
16113;SDS011;8161;-33.910;151.156;2023-03-26T02:17:38;4.40;;;1.75;;
16113;SDS011;8161;-33.910;151.156;2023-03-26T02:20:06;2.97;;;1.50;;
16113;SDS011;8161;-33.910;151.156;2023-03-26T02:22:36;6.30;;;1.93;;
16113;SDS011;8161;-33.910;151.156;2023-03-26T02:25:08;4.45;;;1.70;;
16113;SDS011;8161;-33.910;151.156;2023-03-26T02:27:44;4.15;;;1.70;;
16113;SDS011;8161;-33.910;151.156;2023-03-26T02:30:13;4.00;;;1.57;;
16113;SDS011;8161;-33.910;151.156;2023-03-26T02:32:43;4.82;;;1.70;;
16113;SDS011;8161;-33.910;151.156;2023-03-26T02:35:10;5.43;;;1.80;;
16113;SDS011;8161;-33.910;151.156;2023-03-26T02:37:38;4.40;;;1.70;;
16113;SDS011;8161;-33.910;151.156;2023-03-26T02:40:06;2.70;;;1.63;;
16113;SDS011;8161;-33.910;151.156;2023-03-26T02:42:36;3.60;;;2.17;;
16113;SDS011;8161;-33.910;151.156;2023-03-26T02:45:04;3.83;;;1.80;;
16113;SDS011;8161;-33.910;151.156;2023-03-26T02:47:32;7.45;;;2.00;;
16113;SDS011;8161;-33.910;151.156;2023-03-26T02:49:59;3.88;;;1.75;;
16113;SDS011;8161;-33.910;151.156;2023-03-26T02:52:28;2.65;;;1.52;;
16113;SDS011;8161;-33.910;151.156;2023-03-26T02:54:55;6.53;;;2.10;;
16113;SDS011;8161;-33.910;151.156;2023-03-26T02:57:23;11.48;;;2.05;;
16113;SDS011;8161;-33.910;151.156;2023-03-26T02:59:50;5.65;;;1.70;;
16113;SDS011;8161;-33.910;151.156;2023-03-26T03:02:18;5.68;;;1.85;;
16113;SDS011;8161;-33.910;151.156;2023-03-26T03:04:48;6.20;;;1.83;;
16113;SDS011;8161;-33.910;151.156;2023-03-26T03:07:16;5.43;;;1.70;;
16113;SDS011;8161;-33.910;151.156;2023-03-26T03:09:44;5.75;;;2.10;;
16113;SDS011;8161;-33.910;151.156;2023-03-26T03:12:15;6.05;;;1.80;;
16113;SDS011;8161;-33.910;151.156;2023-03-26T03:14:42;5.95;;;1.65;;
16113;SDS011;8161;-33.910;151.156;2023-03-26T03:17:09;4.80;;;1.63;;
16113;SDS011;8161;-33.910;151.156;2023-03-26T03:19:36;6.82;;;1.80;;
16113;SDS011;8161;-33.910;151.156;2023-03-26T03:22:03;5.05;;;1.80;;
16113;SDS011;8161;-33.910;151.156;2023-03-26T03:24:31;5.30;;;1.73;;
16113;SDS011;8161;-33.910;151.156;2023-03-26T03:26:58;7.53;;;1.70;;
16113;SDS011;8161;-33.910;151.156;2023-03-26T03:29:27;5.28;;;1.83;;
16113;SDS011;8161;-33.910;151.156;2023-03-26T03:31:54;5.15;;;2.15;;
16113;SDS011;8161;-33.910;151.156;2023-03-26T03:34:21;4.10;;;1.90;;
16113;SDS011;8161;-33.910;151.156;2023-03-26T03:36:49;4.55;;;1.80;;
16113;SDS011;8161;-33.910;151.156;2023-03-26T03:39:17;5.72;;;1.98;;
16113;SDS011;8161;-33.910;151.156;2023-03-26T03:41:44;2.60;;;1.60;;
16113;SDS011;8161;-33.910;151.156;2023-03-26T03:44:11;4.75;;;2.00;;
16113;SDS011;8161;-33.910;151.156;2023-03-26T03:46:38;3.63;;;2.30;;
16113;SDS011;8161;-33.910;151.156;2023-03-26T03:49:05;3.03;;;1.80;;
16113;SDS011;8161;-33.910;151.156;2023-03-26T03:51:35;5.03;;;2.10;;
16113;SDS011;8161;-33.910;151.156;2023-03-26T03:54:03;5.82;;;2.15;;
16113;SDS011;8161;-33.910;151.156;2023-03-26T03:56:30;5.25;;;2.30;;
16113;SDS011;8161;-33.910;151.156;2023-03-26T03:58:57;3.60;;;2.00;;
16113;SDS011;8161;-33.910;151.156;2023-03-26T04:01:24;4.63;;;2.20;;
16113;SDS011;8161;-33.910;151.156;2023-03-26T04:03:55;5.93;;;2.25;;
16113;SDS011;8161;-33.910;151.156;2023-03-26T04:06:23;6.20;;;2.42;;
16113;SDS011;8161;-33.910;151.156;2023-03-26T04:08:55;4.07;;;2.65;;
16113;SDS011;8161;-33.910;151.156;2023-03-26T04:11:22;5.53;;;2.17;;
16113;SDS011;8161;-33.910;151.156;2023-03-26T04:13:49;6.25;;;2.30;;
16113;SDS011;8161;-33.910;151.156;2023-03-26T04:16:16;5.38;;;2.75;;
16113;SDS011;8161;-33.910;151.156;2023-03-26T04:18:43;9.00;;;2.90;;
16113;SDS011;8161;-33.910;151.156;2023-03-26T04:21:11;6.10;;;2.47;;
16113;SDS011;8161;-33.910;151.156;2023-03-26T04:23:40;3.20;;;2.30;;
16113;SDS011;8161;-33.910;151.156;2023-03-26T04:26:07;5.30;;;2.42;;
16113;SDS011;8161;-33.910;151.156;2023-03-26T04:31:23;11.02;;;2.75;;
16113;SDS011;8161;-33.910;151.156;2023-03-26T04:36:43;5.40;;;2.70;;
16113;SDS011;8161;-33.910;151.156;2023-03-26T04:39:11;5.03;;;2.50;;
16113;SDS011;8161;-33.910;151.156;2023-03-26T04:41:38;8.00;;;2.90;;
16113;SDS011;8161;-33.910;151.156;2023-03-26T04:44:06;8.73;;;3.10;;
16113;SDS011;8161;-33.910;151.156;2023-03-26T04:46:33;5.10;;;2.60;;
16113;SDS011;8161;-33.910;151.156;2023-03-26T04:49:00;5.82;;;2.60;;
16113;SDS011;8161;-33.910;151.156;2023-03-26T04:51:30;4.53;;;2.60;;
16113;SDS011;8161;-33.910;151.156;2023-03-26T04:54:02;7.47;;;2.65;;
16113;SDS011;8161;-33.910;151.156;2023-03-26T04:56:39;4.97;;;2.83;;
16113;SDS011;8161;-33.910;151.156;2023-03-26T04:59:16;7.20;;;2.90;;
16113;SDS011;8161;-33.910;151.156;2023-03-26T05:01:54;5.75;;;2.90;;
16113;SDS011;8161;-33.910;151.156;2023-03-26T05:04:23;6.70;;;3.20;;
16113;SDS011;8161;-33.910;151.156;2023-03-26T05:06:54;6.55;;;2.90;;
16113;SDS011;8161;-33.910;151.156;2023-03-26T05:09:25;8.07;;;3.22;;
16113;SDS011;8161;-33.910;151.156;2023-03-26T05:11:54;10.73;;;3.35;;
16113;SDS011;8161;-33.910;151.156;2023-03-26T05:14:22;9.98;;;3.25;;
16113;SDS011;8161;-33.910;151.156;2023-03-26T05:16:50;6.05;;;3.28;;
16113;SDS011;8161;-33.910;151.156;2023-03-26T05:19:17;7.63;;;4.10;;
16113;SDS011;8161;-33.910;151.156;2023-03-26T05:21:45;4.53;;;3.30;;
16113;SDS011;8161;-33.910;151.156;2023-03-26T05:24:12;8.45;;;3.55;;
16113;SDS011;8161;-33.910;151.156;2023-03-26T05:26:40;7.47;;;3.53;;
16113;SDS011;8161;-33.910;151.156;2023-03-26T05:29:07;5.77;;;3.30;;
16113;SDS011;8161;-33.910;151.156;2023-03-26T05:31:34;7.72;;;3.50;;
16113;SDS011;8161;-33.910;151.156;2023-03-26T05:34:02;5.97;;;3.40;;
16113;SDS011;8161;-33.910;151.156;2023-03-26T05:36:31;5.00;;;3.23;;
16113;SDS011;8161;-33.910;151.156;2023-03-26T05:38:58;4.28;;;3.17;;
16113;SDS011;8161;-33.910;151.156;2023-03-26T05:41:25;5.15;;;3.22;;
16113;SDS011;8161;-33.910;151.156;2023-03-26T05:43:52;6.68;;;3.50;;
16113;SDS011;8161;-33.910;151.156;2023-03-26T05:46:20;4.95;;;3.28;;
16113;SDS011;8161;-33.910;151.156;2023-03-26T05:48:48;4.53;;;3.10;;
16113;SDS011;8161;-33.910;151.156;2023-03-26T05:51:16;6.82;;;3.63;;
16113;SDS011;8161;-33.910;151.156;2023-03-26T05:53:43;4.88;;;3.15;;
16113;SDS011;8161;-33.910;151.156;2023-03-26T05:56:11;4.57;;;3.43;;
16113;SDS011;8161;-33.910;151.156;2023-03-26T05:58:38;8.13;;;3.67;;
16113;SDS011;8161;-33.910;151.156;2023-03-26T06:01:07;7.13;;;3.47;;
16113;SDS011;8161;-33.910;151.156;2023-03-26T06:03:42;4.70;;;3.55;;
16113;SDS011;8161;-33.910;151.156;2023-03-26T06:06:16;4.65;;;3.50;;
16113;SDS011;8161;-33.910;151.156;2023-03-26T06:08:46;7.10;;;3.53;;
16113;SDS011;8161;-33.910;151.156;2023-03-26T06:11:15;5.10;;;3.40;;
16113;SDS011;8161;-33.910;151.156;2023-03-26T06:13:43;5.93;;;3.33;;
16113;SDS011;8161;-33.910;151.156;2023-03-26T06:16:11;4.60;;;3.10;;
16113;SDS011;8161;-33.910;151.156;2023-03-26T06:18:39;6.20;;;3.40;;
16113;SDS011;8161;-33.910;151.156;2023-03-26T06:21:06;4.43;;;3.55;;
16113;SDS011;8161;-33.910;151.156;2023-03-26T06:23:34;5.25;;;3.60;;
16113;SDS011;8161;-33.910;151.156;2023-03-26T06:26:01;5.38;;;3.28;;
16113;SDS011;8161;-33.910;151.156;2023-03-26T06:28:28;5.75;;;3.65;;
16113;SDS011;8161;-33.910;151.156;2023-03-26T06:30:57;8.10;;;3.50;;
16113;SDS011;8161;-33.910;151.156;2023-03-26T06:33:26;7.32;;;4.03;;
16113;SDS011;8161;-33.910;151.156;2023-03-26T06:35:53;7.18;;;4.00;;
16113;SDS011;8161;-33.910;151.156;2023-03-26T06:38:22;6.23;;;3.70;;
16113;SDS011;8161;-33.910;151.156;2023-03-26T06:40:52;5.28;;;3.90;;
16113;SDS011;8161;-33.910;151.156;2023-03-26T06:43:19;7.53;;;3.80;;
16113;SDS011;8161;-33.910;151.156;2023-03-26T06:45:50;7.90;;;4.03;;
16113;SDS011;8161;-33.910;151.156;2023-03-26T06:48:17;8.70;;;4.00;;
16113;SDS011;8161;-33.910;151.156;2023-03-26T06:50:45;5.65;;;3.60;;
16113;SDS011;8161;-33.910;151.156;2023-03-26T06:53:12;4.68;;;3.40;;
16113;SDS011;8161;-33.910;151.156;2023-03-26T06:55:39;8.77;;;4.10;;
16113;SDS011;8161;-33.910;151.156;2023-03-26T06:58:08;5.95;;;3.70;;
16113;SDS011;8161;-33.910;151.156;2023-03-26T07:00:37;9.63;;;3.93;;
16113;SDS011;8161;-33.910;151.156;2023-03-26T07:03:08;6.03;;;4.20;;
16113;SDS011;8161;-33.910;151.156;2023-03-26T07:05:36;8.80;;;3.83;;
16113;SDS011;8161;-33.910;151.156;2023-03-26T07:08:05;5.60;;;4.05;;
16113;SDS011;8161;-33.910;151.156;2023-03-26T07:10:32;8.23;;;4.70;;
16113;SDS011;8161;-33.910;151.156;2023-03-26T07:13:00;7.22;;;3.85;;
16113;SDS011;8161;-33.910;151.156;2023-03-26T07:15:27;7.50;;;3.95;;
16113;SDS011;8161;-33.910;151.156;2023-03-26T07:17:54;7.80;;;4.28;;
16113;SDS011;8161;-33.910;151.156;2023-03-26T07:20:22;6.53;;;4.10;;
16113;SDS011;8161;-33.910;151.156;2023-03-26T07:22:50;7.38;;;4.50;;
16113;SDS011;8161;-33.910;151.156;2023-03-26T07:25:17;8.38;;;4.55;;
16113;SDS011;8161;-33.910;151.156;2023-03-26T07:27:50;7.03;;;5.10;;
16113;SDS011;8161;-33.910;151.156;2023-03-26T07:33:07;6.78;;;4.65;;
16113;SDS011;8161;-33.910;151.156;2023-03-26T07:35:52;7.50;;;5.50;;
16113;SDS011;8161;-33.910;151.156;2023-03-26T07:46:55;7.50;;;5.25;;
16113;SDS011;8161;-33.910;151.156;2023-03-26T07:49:26;6.43;;;5.03;;
16113;SDS011;8161;-33.910;151.156;2023-03-26T07:51:54;6.95;;;5.22;;
16113;SDS011;8161;-33.910;151.156;2023-03-26T07:54:21;7.53;;;5.70;;
16113;SDS011;8161;-33.910;151.156;2023-03-26T07:56:56;8.38;;;5.50;;
16113;SDS011;8161;-33.910;151.156;2023-03-26T07:59:39;8.15;;;5.35;;
16113;SDS011;8161;-33.910;151.156;2023-03-26T08:10:26;11.18;;;6.30;;
16113;SDS011;8161;-33.910;151.156;2023-03-26T08:13:24;7.00;;;5.30;;
16113;SDS011;8161;-33.910;151.156;2023-03-26T08:16:06;10.70;;;5.75;;
16113;SDS011;8161;-33.910;151.156;2023-03-26T08:18:38;11.43;;;5.80;;
16113;SDS011;8161;-33.910;151.156;2023-03-26T08:23:57;8.65;;;5.32;;
16113;SDS011;8161;-33.910;151.156;2023-03-26T08:32:02;8.73;;;5.43;;
16113;SDS011;8161;-33.910;151.156;2023-03-26T08:34:34;9.13;;;5.68;;
16113;SDS011;8161;-33.910;151.156;2023-03-26T08:37:01;10.02;;;5.60;;
16113;SDS011;8161;-33.910;151.156;2023-03-26T08:39:29;8.40;;;5.80;;
16113;SDS011;8161;-33.910;151.156;2023-03-26T09:21:22;9.25;;;4.80;;
16113;SDS011;8161;-33.910;151.156;2023-03-26T09:23:41;11.38;;;4.40;;
16113;SDS011;8161;-33.910;151.156;2023-03-26T09:37:58;10.45;;;5.80;;
16113;SDS011;8161;-33.910;151.156;2023-03-26T09:44:31;10.57;;;4.90;;
16113;SDS011;8161;-33.910;151.156;2023-03-26T09:46:44;9.98;;;5.60;;
16113;SDS011;8161;-33.910;151.156;2023-03-26T10:02:52;7.75;;;4.07;;
16113;SDS011;8161;-33.910;151.156;2023-03-26T10:19:05;9.50;;;4.45;;
16113;SDS011;8161;-33.910;151.156;2023-03-26T10:34:54;9.38;;;3.95;;
16113;SDS011;8161;-33.910;151.156;2023-03-26T10:40:26;8.10;;;3.80;;
16113;SDS011;8161;-33.910;151.156;2023-03-26T10:57:11;7.63;;;4.30;;
16113;SDS011;8161;-33.910;151.156;2023-03-26T10:59:48;10.77;;;4.60;;
16113;SDS011;8161;-33.910;151.156;2023-03-26T11:02:36;8.63;;;4.30;;
16113;SDS011;8161;-33.910;151.156;2023-03-26T11:08:03;9.93;;;4.00;;
16113;SDS011;8161;-33.910;151.156;2023-03-26T11:16:05;9.07;;;3.90;;
16113;SDS011;8161;-33.910;151.156;2023-03-26T11:19:25;9.95;;;4.53;;
16113;SDS011;8161;-33.910;151.156;2023-03-26T11:21:32;10.60;;;4.60;;
16113;SDS011;8161;-33.910;151.156;2023-03-26T11:26:53;8.30;;;3.90;;
16113;SDS011;8161;-33.910;151.156;2023-03-26T11:32:01;11.23;;;4.10;;
16113;SDS011;8161;-33.910;151.156;2023-03-26T11:40:11;10.37;;;4.33;;
16113;SDS011;8161;-33.910;151.156;2023-03-26T11:42:59;10.50;;;4.63;;
16113;SDS011;8161;-33.910;151.156;2023-03-26T11:45:35;9.03;;;4.03;;
16113;SDS011;8161;-33.910;151.156;2023-03-26T11:48:13;11.80;;;4.30;;
16113;SDS011;8161;-33.910;151.156;2023-03-26T11:51:37;15.77;;;3.95;;
16113;SDS011;8161;-33.910;151.156;2023-03-26T11:54:01;9.77;;;4.03;;
16113;SDS011;8161;-33.910;151.156;2023-03-26T11:56:40;13.68;;;4.45;;
16113;SDS011;8161;-33.910;151.156;2023-03-26T11:59:15;10.05;;;3.90;;
16113;SDS011;8161;-33.910;151.156;2023-03-26T12:02:30;9.65;;;4.20;;
16113;SDS011;8161;-33.910;151.156;2023-03-26T12:04:41;9.50;;;3.70;;
16113;SDS011;8161;-33.910;151.156;2023-03-26T12:09:52;7.82;;;3.67;;
16113;SDS011;8161;-33.910;151.156;2023-03-26T12:12:28;9.07;;;3.77;;
16113;SDS011;8161;-33.910;151.156;2023-03-26T12:14:58;9.57;;;4.13;;
16113;SDS011;8161;-33.910;151.156;2023-03-26T12:19:53;10.75;;;3.83;;
16113;SDS011;8161;-33.910;151.156;2023-03-26T12:27:50;10.02;;;3.75;;
16113;SDS011;8161;-33.910;151.156;2023-03-26T12:33:25;9.13;;;3.43;;
16113;SDS011;8161;-33.910;151.156;2023-03-26T12:35:58;12.03;;;3.80;;
16113;SDS011;8161;-33.910;151.156;2023-03-26T12:38:47;7.55;;;3.45;;
16113;SDS011;8161;-33.910;151.156;2023-03-26T12:41:15;10.45;;;3.63;;
16113;SDS011;8161;-33.910;151.156;2023-03-26T12:43:48;6.35;;;3.20;;
16113;SDS011;8161;-33.910;151.156;2023-03-26T12:49:06;7.30;;;3.65;;
16113;SDS011;8161;-33.910;151.156;2023-03-26T13:14:00;9.43;;;3.58;;
16113;SDS011;8161;-33.910;151.156;2023-03-26T13:22:18;10.70;;;3.73;;
16113;SDS011;8161;-33.910;151.156;2023-03-26T13:24:57;11.55;;;3.70;;
16113;SDS011;8161;-33.910;151.156;2023-03-26T13:27:44;13.82;;;4.07;;
16113;SDS011;8161;-33.910;151.156;2023-03-26T13:33:16;7.65;;;3.67;;
16113;SDS011;8161;-33.910;151.156;2023-03-26T13:49:52;14.43;;;4.30;;
16113;SDS011;8161;-33.910;151.156;2023-03-26T13:52:39;9.68;;;4.03;;
16113;SDS011;8161;-33.910;151.156;2023-03-26T14:09:18;7.38;;;3.63;;
16113;SDS011;8161;-33.910;151.156;2023-03-26T14:12:01;9.05;;;3.80;;
16113;SDS011;8161;-33.910;151.156;2023-03-26T14:14:57;7.63;;;3.90;;
16113;SDS011;8161;-33.910;151.156;2023-03-26T14:31:35;8.40;;;3.72;;
16113;SDS011;8161;-33.910;151.156;2023-03-26T14:42:45;5.70;;;3.90;;
16113;SDS011;8161;-33.910;151.156;2023-03-26T14:53:31;9.00;;;4.15;;
16113;SDS011;8161;-33.910;151.156;2023-03-26T15:04:19;6.30;;;3.70;;
16113;SDS011;8161;-33.910;151.156;2023-03-26T15:12:59;7.35;;;3.72;;
16113;SDS011;8161;-33.910;151.156;2023-03-26T15:15:49;8.32;;;4.15;;
16113;SDS011;8161;-33.910;151.156;2023-03-26T15:29:49;9.73;;;4.28;;
16113;SDS011;8161;-33.910;151.156;2023-03-26T15:38:09;8.43;;;3.92;;
16113;SDS011;8161;-33.910;151.156;2023-03-26T15:41:09;6.72;;;4.22;;
16113;SDS011;8161;-33.910;151.156;2023-03-26T15:52:37;8.60;;;4.20;;
16113;SDS011;8161;-33.910;151.156;2023-03-26T15:55:22;12.65;;;3.90;;
16113;SDS011;8161;-33.910;151.156;2023-03-26T16:12:23;5.82;;;3.83;;
16113;SDS011;8161;-33.910;151.156;2023-03-26T16:20:30;8.37;;;4.03;;
16113;SDS011;8161;-33.910;151.156;2023-03-26T16:23:00;7.50;;;4.15;;
16113;SDS011;8161;-33.910;151.156;2023-03-26T16:25:33;8.37;;;4.33;;
16113;SDS011;8161;-33.910;151.156;2023-03-26T16:28:40;7.57;;;4.35;;
16113;SDS011;8161;-33.910;151.156;2023-03-26T16:36:41;6.83;;;4.30;;
16113;SDS011;8161;-33.910;151.156;2023-03-26T16:39:17;9.32;;;4.70;;
16113;SDS011;8161;-33.910;151.156;2023-03-26T16:44:48;5.90;;;4.10;;
16113;SDS011;8161;-33.910;151.156;2023-03-26T16:47:44;7.75;;;4.10;;
16113;SDS011;8161;-33.910;151.156;2023-03-26T16:55:45;10.65;;;4.80;;
16113;SDS011;8161;-33.910;151.156;2023-03-26T17:04:02;6.13;;;4.38;;
16113;SDS011;8161;-33.910;151.156;2023-03-26T17:09:50;7.07;;;4.00;;
16113;SDS011;8161;-33.910;151.156;2023-03-26T17:26:23;9.50;;;4.28;;
16113;SDS011;8161;-33.910;151.156;2023-03-26T17:29:07;6.85;;;3.88;;
16113;SDS011;8161;-33.910;151.156;2023-03-26T17:42:37;7.43;;;4.60;;
16113;SDS011;8161;-33.910;151.156;2023-03-26T17:45:24;7.43;;;4.03;;
16113;SDS011;8161;-33.910;151.156;2023-03-26T17:47:57;4.53;;;4.07;;
16113;SDS011;8161;-33.910;151.156;2023-03-26T17:50:44;8.38;;;4.47;;
16113;SDS011;8161;-33.910;151.156;2023-03-26T17:53:28;6.70;;;4.57;;
16113;SDS011;8161;-33.910;151.156;2023-03-26T17:56:02;7.70;;;4.40;;
16113;SDS011;8161;-33.910;151.156;2023-03-26T18:01:06;5.32;;;4.40;;
16113;SDS011;8161;-33.910;151.156;2023-03-26T18:03:57;6.47;;;4.28;;
16113;SDS011;8161;-33.910;151.156;2023-03-26T18:17:20;8.52;;;4.53;;
16113;SDS011;8161;-33.910;151.156;2023-03-26T18:19:53;5.82;;;4.43;;
16113;SDS011;8161;-33.910;151.156;2023-03-26T18:22:30;8.60;;;4.38;;
16113;SDS011;8161;-33.910;151.156;2023-03-26T18:24:59;7.43;;;4.25;;
16113;SDS011;8161;-33.910;151.156;2023-03-26T18:27:35;7.97;;;4.35;;
16113;SDS011;8161;-33.910;151.156;2023-03-26T18:30:15;6.95;;;4.38;;
16113;SDS011;8161;-33.910;151.156;2023-03-26T18:38:19;6.00;;;4.30;;
16113;SDS011;8161;-33.910;151.156;2023-03-26T18:40:49;6.32;;;4.57;;
16113;SDS011;8161;-33.910;151.156;2023-03-26T18:43:20;8.02;;;4.20;;
16113;SDS011;8161;-33.910;151.156;2023-03-26T18:45:49;7.57;;;3.87;;
16113;SDS011;8161;-33.910;151.156;2023-03-26T18:48:20;6.28;;;4.40;;
16113;SDS011;8161;-33.910;151.156;2023-03-26T18:50:56;5.78;;;4.15;;
16113;SDS011;8161;-33.910;151.156;2023-03-26T18:53:27;6.15;;;3.95;;
16113;SDS011;8161;-33.910;151.156;2023-03-26T18:55:56;7.43;;;4.15;;
16113;SDS011;8161;-33.910;151.156;2023-03-26T18:58:25;5.30;;;4.30;;
16113;SDS011;8161;-33.910;151.156;2023-03-26T19:01:01;5.15;;;4.13;;
16113;SDS011;8161;-33.910;151.156;2023-03-26T19:03:36;5.10;;;4.07;;
16113;SDS011;8161;-33.910;151.156;2023-03-26T19:06:09;5.45;;;4.85;;
16113;SDS011;8161;-33.910;151.156;2023-03-26T19:08:40;6.53;;;4.60;;
16113;SDS011;8161;-33.910;151.156;2023-03-26T19:11:09;8.20;;;4.45;;
16113;SDS011;8161;-33.910;151.156;2023-03-26T19:13:39;8.25;;;3.75;;
16113;SDS011;8161;-33.910;151.156;2023-03-26T19:16:19;6.47;;;4.00;;
16113;SDS011;8161;-33.910;151.156;2023-03-26T19:18:53;5.60;;;4.15;;
16113;SDS011;8161;-33.910;151.156;2023-03-26T19:21:23;5.55;;;4.32;;
16113;SDS011;8161;-33.910;151.156;2023-03-26T19:23:51;4.93;;;4.05;;
16113;SDS011;8161;-33.910;151.156;2023-03-26T19:26:22;4.93;;;4.40;;
16113;SDS011;8161;-33.910;151.156;2023-03-26T19:28:51;5.80;;;3.80;;
16113;SDS011;8161;-33.910;151.156;2023-03-26T19:33:53;6.73;;;4.30;;
16113;SDS011;8161;-33.910;151.156;2023-03-26T19:36:30;5.32;;;4.18;;
16113;SDS011;8161;-33.910;151.156;2023-03-26T19:41:37;7.57;;;4.60;;
16113;SDS011;8161;-33.910;151.156;2023-03-26T19:44:18;6.60;;;4.18;;
16113;SDS011;8161;-33.910;151.156;2023-03-26T19:46:51;10.88;;;4.82;;
16113;SDS011;8161;-33.910;151.156;2023-03-26T19:49:30;7.35;;;4.20;;
16113;SDS011;8161;-33.910;151.156;2023-03-26T19:52:13;5.75;;;4.22;;
16113;SDS011;8161;-33.910;151.156;2023-03-26T19:54:52;7.10;;;4.47;;
16113;SDS011;8161;-33.910;151.156;2023-03-26T19:57:29;5.47;;;4.50;;
16113;SDS011;8161;-33.910;151.156;2023-03-26T19:59:57;6.68;;;4.57;;
16113;SDS011;8161;-33.910;151.156;2023-03-26T20:02:25;8.33;;;4.90;;
16113;SDS011;8161;-33.910;151.156;2023-03-26T20:04:53;6.85;;;4.70;;
16113;SDS011;8161;-33.910;151.156;2023-03-26T20:07:21;5.25;;;4.20;;
16113;SDS011;8161;-33.910;151.156;2023-03-26T20:09:52;6.50;;;4.88;;
16113;SDS011;8161;-33.910;151.156;2023-03-26T20:12:20;8.23;;;4.90;;
16113;SDS011;8161;-33.910;151.156;2023-03-26T20:14:47;7.70;;;5.20;;
16113;SDS011;8161;-33.910;151.156;2023-03-26T20:17:15;6.43;;;4.78;;
16113;SDS011;8161;-33.910;151.156;2023-03-26T20:19:46;9.00;;;4.72;;
16113;SDS011;8161;-33.910;151.156;2023-03-26T20:22:17;6.95;;;5.00;;
16113;SDS011;8161;-33.910;151.156;2023-03-26T20:24:45;7.97;;;5.25;;
16113;SDS011;8161;-33.910;151.156;2023-03-26T20:27:12;6.35;;;4.75;;
16113;SDS011;8161;-33.910;151.156;2023-03-26T20:29:43;10.18;;;5.25;;
16113;SDS011;8161;-33.910;151.156;2023-03-26T20:32:18;8.63;;;4.80;;
16113;SDS011;8161;-33.910;151.156;2023-03-26T20:34:47;9.68;;;5.40;;
16113;SDS011;8161;-33.910;151.156;2023-03-26T20:37:15;6.20;;;5.55;;
16113;SDS011;8161;-33.910;151.156;2023-03-26T20:39:42;7.50;;;5.15;;
16113;SDS011;8161;-33.910;151.156;2023-03-26T20:42:10;8.05;;;5.70;;
16113;SDS011;8161;-33.910;151.156;2023-03-26T20:44:38;14.25;;;5.65;;
16113;SDS011;8161;-33.910;151.156;2023-03-26T20:47:07;11.85;;;5.65;;
16113;SDS011;8161;-33.910;151.156;2023-03-26T20:49:37;7.50;;;5.68;;
16113;SDS011;8161;-33.910;151.156;2023-03-26T20:52:04;7.80;;;5.78;;
16113;SDS011;8161;-33.910;151.156;2023-03-26T20:54:34;9.85;;;5.38;;
16113;SDS011;8161;-33.910;151.156;2023-03-26T20:57:04;9.65;;;5.90;;
16113;SDS011;8161;-33.910;151.156;2023-03-26T20:59:34;11.65;;;5.93;;
16113;SDS011;8161;-33.910;151.156;2023-03-26T21:02:02;11.68;;;6.40;;
16113;SDS011;8161;-33.910;151.156;2023-03-26T21:04:29;9.25;;;6.82;;
16113;SDS011;8161;-33.910;151.156;2023-03-26T21:06:56;11.98;;;9.85;;
16113;SDS011;8161;-33.910;151.156;2023-03-26T21:09:23;12.05;;;6.40;;
16113;SDS011;8161;-33.910;151.156;2023-03-26T21:12:05;10.65;;;6.85;;
16113;SDS011;8161;-33.910;151.156;2023-03-26T21:14:35;13.18;;;7.32;;
16113;SDS011;8161;-33.910;151.156;2023-03-26T21:17:12;8.85;;;6.55;;
16113;SDS011;8161;-33.910;151.156;2023-03-26T21:19:42;12.10;;;6.43;;
16113;SDS011;8161;-33.910;151.156;2023-03-26T21:24:59;10.15;;;7.03;;
16113;SDS011;8161;-33.910;151.156;2023-03-26T21:27:39;9.25;;;6.20;;
16113;SDS011;8161;-33.910;151.156;2023-03-26T21:30:26;9.67;;;6.87;;
16113;SDS011;8161;-33.910;151.156;2023-03-26T21:32:54;9.57;;;6.43;;
16113;SDS011;8161;-33.910;151.156;2023-03-26T21:35:21;9.82;;;6.78;;
16113;SDS011;8161;-33.910;151.156;2023-03-26T21:37:49;10.23;;;7.10;;
16113;SDS011;8161;-33.910;151.156;2023-03-26T21:40:17;11.27;;;8.27;;
16113;SDS011;8161;-33.910;151.156;2023-03-26T21:42:46;8.23;;;7.35;;
16113;SDS011;8161;-33.910;151.156;2023-03-26T21:45:16;9.85;;;7.25;;
16113;SDS011;8161;-33.910;151.156;2023-03-26T21:47:44;9.18;;;7.60;;
16113;SDS011;8161;-33.910;151.156;2023-03-26T21:50:13;11.63;;;7.72;;
16113;SDS011;8161;-33.910;151.156;2023-03-26T21:52:42;12.40;;;9.15;;
16113;SDS011;8161;-33.910;151.156;2023-03-26T21:55:14;10.18;;;8.13;;